createdAt,value
2022-09-15T00:01:15.402Z,1.67
2022-09-15T00:03:43.128Z,2.45
2022-09-15T00:06:11.625Z,2.38
2022-09-15T00:08:39.587Z,1.70
2022-09-15T00:11:12.041Z,1.40
2022-09-15T00:13:40.606Z,1.98
2022-09-15T00:16:09.571Z,1.83
2022-09-15T00:18:38.359Z,2.58
2022-09-15T00:21:08.333Z,2.50
2022-09-15T00:23:35.885Z,2.03
2022-09-15T00:26:08.060Z,1.90
2022-09-15T00:28:36.539Z,2.10
2022-09-15T00:31:07.646Z,1.70
2022-09-15T00:33:35.766Z,2.05
2022-09-15T00:36:06.095Z,2.05
2022-09-15T00:38:34.543Z,2.25
2022-09-15T00:41:02.888Z,1.83
2022-09-15T00:43:52.254Z,2.00
2022-09-15T00:46:31.149Z,1.80
2022-09-15T00:49:17.843Z,1.83
2022-09-15T00:51:56.198Z,1.25
2022-09-15T00:54:41.582Z,1.88
2022-09-15T00:57:17.370Z,1.77
2022-09-15T00:59:45.926Z,1.85
2022-09-15T01:02:23.310Z,1.45
2022-09-15T01:04:57.533Z,1.67
2022-09-15T01:07:53.916Z,1.20
2022-09-15T01:10:31.252Z,1.40
2022-09-15T01:13:04.591Z,1.80
2022-09-15T01:15:58.035Z,1.38
2022-09-15T01:18:55.701Z,1.60
2022-09-15T01:21:45.496Z,1.63
2022-09-15T01:24:35.045Z,1.70
2022-09-15T01:27:42.095Z,1.73
2022-09-15T01:30:17.481Z,2.35
2022-09-15T01:33:05.610Z,3.13
2022-09-15T01:35:48.223Z,2.35
2022-09-15T01:38:40.546Z,3.08
2022-09-15T01:41:13.761Z,3.40
2022-09-15T01:44:08.859Z,3.13
2022-09-15T01:46:41.136Z,3.83
2022-09-15T01:49:12.168Z,3.30
2022-09-15T01:51:40.486Z,4.22
2022-09-15T01:54:09.049Z,4.43
2022-09-15T01:56:38.881Z,3.35
2022-09-15T01:59:07.107Z,3.60
2022-09-15T02:01:52.030Z,3.53
2022-09-15T02:07:21.278Z,3.78
2022-09-15T02:09:57.659Z,3.65
2022-09-15T02:12:34.116Z,3.58
2022-09-15T02:15:05.858Z,4.55
2022-09-15T02:17:39.030Z,4.38
2022-09-15T02:20:23.781Z,4.32
2022-09-15T02:22:57.351Z,3.55
2022-09-15T02:25:38.867Z,3.35
2022-09-15T02:28:08.767Z,3.60
2022-09-15T02:30:43.172Z,3.28
2022-09-15T02:33:15.267Z,4.20
2022-09-15T02:35:43.838Z,3.70
2022-09-15T02:38:12.399Z,2.95
2022-09-15T02:40:43.409Z,3.00
2022-09-15T02:43:16.090Z,3.50
2022-09-15T02:45:44.230Z,3.67
2022-09-15T02:48:11.859Z,3.35
2022-09-15T02:50:39.509Z,3.28
2022-09-15T02:53:07.208Z,3.40
2022-09-15T02:55:34.883Z,3.13
2022-09-15T02:58:02.292Z,3.42
2022-09-15T03:00:31.299Z,3.38
2022-09-15T03:02:58.807Z,3.42
2022-09-15T03:05:28.830Z,3.55
2022-09-15T03:07:56.945Z,3.28
2022-09-15T03:10:26.055Z,3.30
2022-09-15T03:12:55.035Z,2.95
2022-09-15T03:15:25.429Z,3.20
2022-09-15T03:17:53.570Z,3.28
2022-09-15T03:20:30.430Z,2.95
2022-09-15T03:22:58.070Z,3.03
2022-09-15T03:25:27.082Z,3.90
2022-09-15T03:27:54.561Z,3.22
2022-09-15T03:30:21.859Z,2.50
2022-09-15T03:32:49.279Z,3.33
2022-09-15T03:35:16.807Z,2.80
2022-09-15T03:37:44.359Z,3.00
2022-09-15T03:40:12.162Z,3.53
2022-09-15T03:42:39.631Z,2.70
2022-09-15T03:45:07.513Z,3.65
2022-09-15T03:47:34.940Z,4.00
2022-09-15T03:50:02.475Z,3.42
2022-09-15T03:52:33.108Z,2.63
2022-09-15T03:55:00.517Z,3.03
2022-09-15T03:57:27.806Z,2.92
2022-09-15T03:59:55.138Z,3.50
2022-09-15T04:02:22.607Z,3.40
2022-09-15T04:04:50.071Z,2.70
2022-09-15T04:07:17.370Z,3.30
2022-09-15T04:09:44.884Z,3.08
2022-09-15T04:12:12.243Z,3.38
2022-09-15T04:14:39.689Z,3.28
2022-09-15T04:17:07.103Z,4.13
2022-09-15T04:19:34.450Z,3.72
2022-09-15T04:22:01.770Z,3.83
2022-09-15T04:24:29.230Z,3.60
2022-09-15T04:26:56.609Z,3.20
2022-09-15T04:29:24.888Z,2.80
2022-09-15T04:31:53.193Z,3.40
2022-09-15T04:34:20.590Z,2.55
2022-09-15T04:36:48.253Z,1.80
2022-09-15T04:39:15.548Z,2.50
2022-09-15T04:41:42.918Z,2.55
2022-09-15T04:44:10.369Z,2.80
2022-09-15T04:46:37.883Z,1.65
2022-09-15T04:49:05.380Z,2.40
2022-09-15T04:51:32.806Z,1.90
2022-09-15T04:54:00.241Z,2.47
2022-09-15T04:56:28.006Z,2.10
2022-09-15T04:59:03.207Z,2.22
2022-09-15T05:01:34.031Z,3.75
2022-09-15T05:04:04.146Z,2.55
2022-09-15T05:06:31.890Z,2.03
2022-09-15T05:08:59.140Z,2.00
2022-09-15T05:11:27.151Z,1.85
2022-09-15T05:13:55.056Z,2.22
2022-09-15T05:16:25.184Z,2.67
2022-09-15T05:18:54.596Z,2.30
2022-09-15T05:21:23.097Z,1.58
2022-09-15T05:23:52.132Z,2.70
2022-09-15T05:26:22.077Z,2.55
2022-09-15T05:28:49.650Z,1.92
2022-09-15T05:31:19.701Z,2.30
2022-09-15T05:33:48.204Z,1.65
2022-09-15T05:36:17.476Z,2.38
2022-09-15T05:38:44.978Z,2.00
2022-09-15T05:41:14.617Z,1.10
2022-09-15T05:43:42.039Z,1.63
2022-09-15T05:46:10.535Z,1.20
2022-09-15T05:48:37.921Z,1.48
2022-09-15T05:51:05.947Z,1.35
2022-09-15T05:53:34.911Z,1.58
2022-09-15T05:56:08.412Z,1.67
2022-09-15T05:58:35.717Z,2.17
2022-09-15T06:01:26.804Z,1.92
2022-09-15T06:03:55.242Z,2.05
2022-09-15T06:06:24.084Z,1.67
2022-09-15T06:08:58.406Z,1.10
2022-09-15T06:11:31.550Z,0.90
2022-09-15T06:14:03.610Z,1.05
2022-09-15T06:16:35.869Z,1.95
2022-09-15T06:19:03.932Z,1.73
2022-09-15T06:21:32.601Z,1.70
2022-09-15T06:24:03.395Z,1.25
2022-09-15T06:26:30.745Z,1.35
2022-09-15T06:29:00.834Z,1.30
2022-09-15T06:31:31.594Z,1.45
2022-09-15T06:33:59.262Z,1.17
2022-09-15T06:36:28.881Z,0.82
2022-09-15T06:38:56.715Z,1.33
2022-09-15T06:41:24.147Z,1.52
2022-09-15T06:43:51.573Z,1.00
2022-09-15T06:46:21.674Z,1.25
2022-09-15T06:48:49.418Z,1.17
2022-09-15T06:51:18.333Z,1.40
2022-09-15T06:53:46.178Z,1.38
2022-09-15T06:56:19.327Z,1.40
2022-09-15T06:58:49.390Z,0.93
2022-09-15T07:01:31.412Z,1.00
2022-09-15T07:04:01.049Z,1.00
2022-09-15T07:06:29.743Z,1.58
2022-09-15T07:08:58.595Z,1.33
2022-09-15T07:11:26.147Z,1.35
2022-09-15T07:13:53.541Z,1.25
2022-09-15T07:16:22.718Z,1.25
2022-09-15T07:18:50.033Z,1.25
2022-09-15T07:21:21.736Z,1.20
2022-09-15T07:23:49.690Z,1.35
2022-09-15T07:26:19.712Z,1.60
2022-09-15T07:28:53.612Z,1.25
2022-09-15T07:31:23.647Z,1.50
2022-09-15T07:33:51.151Z,1.48
2022-09-15T07:36:18.976Z,2.10
2022-09-15T07:38:48.198Z,3.67
2022-09-15T07:41:18.866Z,2.10
2022-09-15T07:43:50.675Z,1.85
2022-09-15T07:46:19.391Z,1.20
2022-09-15T07:48:56.598Z,1.50
2022-09-15T07:51:24.920Z,1.60
2022-09-15T07:53:53.350Z,1.20
2022-09-15T07:56:21.598Z,1.92
2022-09-15T07:58:49.705Z,1.63
2022-09-15T08:01:18.766Z,2.10
2022-09-15T08:03:49.054Z,2.00
2022-09-15T08:06:18.591Z,1.83
2022-09-15T08:08:46.031Z,1.80
2022-09-15T08:11:19.131Z,2.85
2022-09-15T08:13:48.127Z,1.20
2022-09-15T08:16:18.106Z,1.92
2022-09-15T08:18:45.663Z,1.23
2022-09-15T08:21:20.191Z,1.60
2022-09-15T08:26:21.877Z,2.15
2022-09-15T08:28:49.667Z,1.83
2022-09-15T08:31:17.548Z,2.50
2022-09-15T08:33:49.778Z,1.75
2022-09-15T08:36:17.397Z,1.77
2022-09-15T08:38:46.217Z,1.30
2022-09-15T08:41:32.387Z,1.42
2022-09-15T08:44:33.851Z,1.58
2022-09-15T08:47:05.029Z,1.85
2022-09-15T08:49:51.180Z,1.80
2022-09-15T08:52:41.727Z,1.38
2022-09-15T08:55:17.628Z,2.10
2022-09-15T08:57:45.211Z,1.67
2022-09-15T09:00:17.439Z,1.70
2022-09-15T09:02:57.555Z,2.00
2022-09-15T09:05:30.276Z,1.45
2022-09-15T09:08:23.400Z,1.40
2022-09-15T09:11:07.805Z,1.20
2022-09-15T09:13:43.823Z,1.30
2022-09-15T09:16:32.170Z,1.45
2022-09-15T09:19:06.460Z,1.65
2022-09-15T09:21:40.293Z,1.65
2022-09-15T09:24:19.379Z,0.70
2022-09-15T09:26:51.115Z,1.40
2022-09-15T09:29:20.808Z,1.33
2022-09-15T09:31:50.847Z,1.33
2022-09-15T09:34:45.742Z,0.93
2022-09-15T09:37:15.919Z,0.90
2022-09-15T09:39:43.201Z,1.10
2022-09-15T09:42:16.199Z,0.82
2022-09-15T09:44:43.544Z,0.70
2022-09-15T09:47:13.195Z,0.95
2022-09-15T09:49:47.353Z,0.73
2022-09-15T09:52:32.499Z,1.05
2022-09-15T09:55:25.003Z,0.88
2022-09-15T09:57:52.575Z,1.13
2022-09-15T10:00:40.684Z,1.20
2022-09-15T10:03:32.079Z,1.08
2022-09-15T10:06:16.026Z,1.00
2022-09-15T10:08:58.719Z,1.13
2022-09-15T10:11:54.137Z,1.25
2022-09-15T10:14:28.227Z,1.00
2022-09-15T10:16:59.308Z,0.77
2022-09-15T10:19:32.223Z,1.00
2022-09-15T10:22:00.857Z,1.27
2022-09-15T10:24:28.265Z,1.05
2022-09-15T10:27:32.230Z,0.88
2022-09-15T10:30:12.888Z,1.33
2022-09-15T10:32:41.913Z,1.33
2022-09-15T10:35:20.401Z,0.77
2022-09-15T10:38:12.014Z,1.23
2022-09-15T10:40:45.102Z,0.70
2022-09-15T10:43:36.605Z,0.82
2022-09-15T10:46:21.347Z,0.80
2022-09-15T10:49:03.854Z,1.33
2022-09-15T10:51:37.915Z,1.10
2022-09-15T10:54:11.239Z,1.20
2022-09-15T10:56:45.377Z,0.88
2022-09-15T10:59:37.401Z,0.70
2022-09-15T11:02:26.470Z,0.80
2022-09-15T11:05:30.669Z,1.13
2022-09-15T11:08:32.050Z,0.63
2022-09-15T11:11:44.502Z,0.93
2022-09-15T11:14:48.939Z,0.68
2022-09-15T11:17:59.489Z,1.05
2022-09-15T11:20:46.679Z,0.90
2022-09-15T11:24:06.285Z,0.60
2022-09-15T11:26:35.583Z,0.70
2022-09-15T11:29:22.432Z,0.80
2022-09-15T11:31:55.694Z,0.95
2022-09-15T11:34:34.958Z,0.60
2022-09-15T11:37:26.985Z,1.20
2022-09-15T11:40:04.833Z,1.10
2022-09-15T11:42:45.326Z,1.00
2022-09-15T11:45:21.727Z,1.23
2022-09-15T11:48:05.509Z,1.48
2022-09-15T11:50:41.544Z,1.10
2022-09-15T11:53:45.936Z,0.77
2022-09-15T11:56:22.607Z,1.30
2022-09-15T11:58:55.619Z,1.17
2022-09-15T12:01:43.361Z,0.90
2022-09-15T12:04:27.334Z,1.08
2022-09-15T12:07:20.443Z,1.02
2022-09-15T12:09:48.322Z,1.10
2022-09-15T12:12:19.741Z,0.73
2022-09-15T12:14:49.800Z,0.85
2022-09-15T12:17:35.685Z,0.63
2022-09-15T12:20:12.773Z,0.50
2022-09-15T12:22:54.501Z,0.80
2022-09-15T12:25:41.233Z,0.70
2022-09-15T12:28:24.004Z,0.93
2022-09-15T12:31:26.478Z,0.77
2022-09-15T12:34:14.454Z,0.50
2022-09-15T12:36:47.021Z,0.77
2022-09-15T12:39:51.566Z,0.65
2022-09-15T12:42:37.369Z,0.85
2022-09-15T12:45:23.037Z,0.63
2022-09-15T12:47:55.311Z,0.90
2022-09-15T12:50:27.842Z,0.95
2022-09-15T12:53:02.157Z,0.70
2022-09-15T12:55:34.986Z,0.60
2022-09-15T12:58:09.432Z,0.82
2022-09-15T13:01:00.696Z,0.95
2022-09-15T13:03:41.814Z,0.73
2022-09-15T13:06:27.945Z,0.50
2022-09-15T13:09:05.465Z,0.57
2022-09-15T13:11:38.696Z,0.50
2022-09-15T13:14:08.817Z,0.60
2022-09-15T13:16:48.811Z,0.50
2022-09-15T13:19:41.087Z,0.52
2022-09-15T13:22:11.487Z,0.52
2022-09-15T13:25:01.508Z,0.70
2022-09-15T13:27:48.292Z,0.65
2022-09-15T13:30:24.434Z,0.90
2022-09-15T13:33:04.298Z,0.60
2022-09-15T13:35:50.386Z,0.60
2022-09-15T13:38:48.027Z,1.00
2022-09-15T13:41:43.466Z,0.73
2022-09-15T13:44:23.302Z,0.40
2022-09-15T13:46:53.543Z,0.50
2022-09-15T13:49:57.773Z,0.50
2022-09-15T13:52:49.026Z,0.70
2022-09-15T13:55:21.182Z,0.70
2022-09-15T14:01:01.914Z,1.20
2022-09-15T14:03:51.807Z,1.50
2022-09-15T14:06:24.423Z,0.50
2022-09-15T14:08:58.868Z,1.50
2022-09-15T14:11:30.848Z,0.60
2022-09-15T14:14:00.674Z,2.17
2022-09-15T14:16:28.115Z,1.10
2022-09-15T14:18:57.909Z,2.10
2022-09-15T14:21:27.965Z,1.30
2022-09-15T14:23:58.256Z,0.60
2022-09-15T14:26:28.989Z,1.08
2022-09-15T14:28:57.744Z,2.00
2022-09-15T14:31:41.166Z,1.20
2022-09-15T14:34:23.746Z,0.90
2022-09-15T14:37:06.546Z,1.25
2022-09-15T14:39:34.290Z,0.82
2022-09-15T14:42:22.944Z,0.70
2022-09-15T14:47:40.098Z,2.58
2022-09-15T14:50:13.774Z,1.10
2022-09-15T14:53:03.843Z,1.25
2022-09-15T14:55:37.346Z,0.80
2022-09-15T14:58:11.487Z,0.82
2022-09-15T15:00:49.409Z,0.90
2022-09-15T15:03:43.888Z,1.27
2022-09-15T15:06:28.671Z,1.27
2022-09-15T15:09:09.283Z,0.70
2022-09-15T15:11:39.092Z,0.50
2022-09-15T15:14:09.114Z,0.95
2022-09-15T15:16:36.488Z,0.40
2022-09-15T15:19:04.423Z,0.57
2022-09-15T15:21:44.795Z,0.47
2022-09-15T15:24:15.078Z,0.63
2022-09-15T15:26:45.998Z,0.60
2022-09-15T15:29:44.870Z,0.93
2022-09-15T15:32:22.436Z,0.70
2022-09-15T15:34:55.983Z,0.60
2022-09-15T15:37:27.647Z,0.60
2022-09-15T15:39:57.417Z,0.70
2022-09-15T15:42:25.237Z,0.77
2022-09-15T15:45:26.306Z,0.70
2022-09-15T15:47:53.861Z,0.57
2022-09-15T15:50:24.510Z,0.60
2022-09-15T15:52:52.640Z,0.55
2022-09-15T15:55:26.887Z,0.65
2022-09-15T15:57:55.493Z,0.70
2022-09-15T16:00:32.403Z,0.68
2022-09-15T16:02:59.812Z,0.50
2022-09-15T16:05:29.366Z,0.70
2022-09-15T16:07:59.481Z,0.82
2022-09-15T16:10:30.706Z,0.63
2022-09-15T16:12:58.220Z,0.90
2022-09-15T16:15:25.518Z,0.70
2022-09-15T16:17:52.808Z,0.50
2022-09-15T16:20:20.095Z,0.50
2022-09-15T16:22:47.479Z,0.50
2022-09-15T16:25:21.636Z,0.32
2022-09-15T16:27:48.938Z,0.70
2022-09-15T16:30:16.319Z,0.50
2022-09-15T16:32:43.669Z,0.40
2022-09-15T16:35:31.704Z,0.88
2022-09-15T16:37:59.327Z,0.50
2022-09-15T16:40:27.043Z,0.50
2022-09-15T16:42:54.594Z,0.50
2022-09-15T16:45:41.056Z,0.43
2022-09-15T16:48:09.783Z,0.52
2022-09-15T16:50:39.869Z,0.50
2022-09-15T16:53:18.098Z,0.40
2022-09-15T16:55:51.176Z,0.50
2022-09-15T16:58:20.514Z,0.57
2022-09-15T17:00:49.867Z,0.50
2022-09-15T17:03:25.218Z,0.60
2022-09-15T17:05:54.691Z,0.60
2022-09-15T17:08:24.874Z,0.40
2022-09-15T17:10:53.087Z,0.50
2022-09-15T17:13:26.341Z,0.50
2022-09-15T17:15:57.376Z,0.40
2022-09-15T17:18:25.002Z,0.60
2022-09-15T17:20:52.663Z,0.52
2022-09-15T17:23:35.432Z,0.40
2022-09-15T17:26:06.201Z,0.57
2022-09-15T17:28:35.204Z,0.50
2022-09-15T17:31:13.282Z,0.40
2022-09-15T17:33:40.873Z,0.50
2022-09-15T17:36:08.569Z,0.50
2022-09-15T17:38:36.007Z,0.43
2022-09-15T17:41:03.547Z,0.30
2022-09-15T17:43:32.146Z,0.35
2022-09-15T17:45:59.790Z,0.52
2022-09-15T17:48:27.167Z,0.70
2022-09-15T17:50:54.526Z,0.30
2022-09-15T17:53:26.768Z,0.47
2022-09-15T17:55:55.520Z,0.30
2022-09-15T17:58:26.412Z,0.25
2022-09-15T18:00:54.620Z,0.43
2022-09-15T18:03:35.012Z,0.30
2022-09-15T18:06:05.399Z,0.45
2022-09-15T18:08:33.477Z,0.40
2022-09-15T18:11:01.323Z,0.40
2022-09-15T18:13:32.203Z,0.40
2022-09-15T18:16:08.054Z,0.40
2022-09-15T18:18:35.591Z,0.30
2022-09-15T18:21:09.686Z,0.30
2022-09-15T18:23:38.180Z,0.52
2022-09-15T18:26:05.870Z,0.40
2022-09-15T18:28:33.220Z,0.60
2022-09-15T18:31:00.659Z,0.60
2022-09-15T18:33:28.440Z,0.40
2022-09-15T18:35:59.117Z,0.63
2022-09-15T18:38:27.166Z,0.40
2022-09-15T18:40:56.518Z,0.60
2022-09-15T18:43:26.635Z,0.40
2022-09-15T18:45:59.453Z,0.60
2022-09-15T18:48:27.115Z,0.60
2022-09-15T18:50:55.102Z,0.50
2022-09-15T18:53:22.922Z,0.45
2022-09-15T18:55:50.389Z,0.50
2022-09-15T18:58:19.321Z,0.82
2022-09-15T19:00:46.866Z,0.47
2022-09-15T19:03:14.494Z,0.40
2022-09-15T19:05:42.048Z,0.50
2022-09-15T19:08:11.411Z,0.60
2022-09-15T19:10:41.605Z,0.30
2022-09-15T19:13:11.475Z,0.50
2022-09-15T19:15:44.234Z,0.52
2022-09-15T19:18:12.185Z,0.73
2022-09-15T19:20:40.406Z,0.50
2022-09-15T19:23:08.330Z,0.50
2022-09-15T19:25:35.987Z,0.40
2022-09-15T19:28:03.864Z,0.60
2022-09-15T19:30:31.396Z,1.50
2022-09-15T19:32:58.858Z,0.80
2022-09-15T19:35:26.199Z,0.80
2022-09-15T19:37:53.694Z,1.20
2022-09-15T19:40:23.518Z,0.60
2022-09-15T19:42:51.421Z,0.85
2022-09-15T19:45:18.982Z,0.85
2022-09-15T19:47:46.481Z,0.60
2022-09-15T19:50:13.908Z,0.50
2022-09-15T19:52:41.208Z,0.80
2022-09-15T19:55:09.901Z,0.52
2022-09-15T19:57:41.581Z,0.50
2022-09-15T20:00:11.836Z,0.43
2022-09-15T20:02:40.120Z,0.45
2022-09-15T20:07:53.437Z,0.38
2022-09-15T20:10:20.891Z,0.70
2022-09-15T20:12:48.621Z,0.65
2022-09-15T20:15:16.045Z,0.50
2022-09-15T20:17:43.410Z,0.70
2022-09-15T20:20:11.973Z,0.30
2022-09-15T20:22:39.314Z,0.40
2022-09-15T20:25:07.079Z,0.40
2022-09-15T20:27:34.397Z,0.40
2022-09-15T20:30:01.894Z,0.50
2022-09-15T20:32:29.509Z,0.50
2022-09-15T20:34:57.116Z,0.60
2022-09-15T20:37:24.625Z,0.43
2022-09-15T20:39:52.227Z,0.47
2022-09-15T20:42:19.707Z,0.40
2022-09-15T20:44:47.204Z,0.47
2022-09-15T20:47:15.071Z,0.43
2022-09-15T20:49:42.428Z,0.40
2022-09-15T20:52:10.140Z,0.40
2022-09-15T20:54:37.463Z,0.47
2022-09-15T20:57:05.885Z,0.50
2022-09-15T20:59:33.189Z,0.38
2022-09-15T21:02:00.572Z,0.40
2022-09-15T21:04:27.943Z,1.15
2022-09-15T21:06:55.384Z,0.40
2022-09-15T21:09:23.035Z,0.45
2022-09-15T21:11:53.478Z,0.20
2022-09-15T21:14:21.152Z,0.40
2022-09-15T21:16:48.565Z,0.30
2022-09-15T21:19:15.985Z,0.30
2022-09-15T21:21:43.600Z,0.45
2022-09-15T21:24:10.896Z,0.40
2022-09-15T21:27:00.473Z,0.30
2022-09-15T21:29:28.624Z,0.40
2022-09-15T21:31:56.243Z,0.40
2022-09-15T21:34:24.138Z,0.80
2022-09-15T21:36:53.631Z,0.63
2022-09-15T21:39:21.519Z,0.40
2022-09-15T21:41:49.005Z,0.80
2022-09-15T21:44:16.498Z,0.40
2022-09-15T21:46:45.043Z,0.55
2022-09-15T21:49:12.361Z,0.38
2022-09-15T21:51:39.801Z,0.30
2022-09-15T21:54:07.075Z,0.30
2022-09-15T21:56:34.396Z,0.43
2022-09-15T21:59:03.724Z,0.30
2022-09-15T22:01:32.952Z,0.30
2022-09-15T22:04:03.869Z,0.30
2022-09-15T22:06:35.969Z,0.30
2022-09-15T22:09:06.358Z,0.35
2022-09-15T22:11:34.659Z,0.43
2022-09-15T22:14:04.422Z,0.40
2022-09-15T22:16:32.291Z,0.30
2022-09-15T22:19:00.404Z,0.40
2022-09-15T22:21:31.324Z,0.30
2022-09-15T22:23:59.719Z,0.47
2022-09-15T22:26:29.283Z,0.63
2022-09-15T22:28:58.433Z,0.30
2022-09-15T22:31:27.056Z,0.40
2022-09-15T22:33:54.913Z,0.50
2022-09-15T22:36:29.241Z,0.40
2022-09-15T22:39:04.111Z,0.20
2022-09-15T22:41:37.467Z,0.40
2022-09-15T22:44:06.276Z,0.40
2022-09-15T22:46:34.669Z,0.55
2022-09-15T22:49:02.225Z,1.30
2022-09-15T22:51:29.681Z,0.47
2022-09-15T22:53:57.531Z,0.50
2022-09-15T22:56:26.647Z,0.40
2022-09-15T22:58:55.853Z,0.55
2022-09-15T23:01:26.791Z,0.57
2022-09-15T23:03:56.887Z,0.50
2022-09-15T23:06:26.183Z,0.50
2022-09-15T23:08:55.642Z,0.50
2022-09-15T23:11:24.383Z,0.40
2022-09-15T23:13:53.417Z,0.50
2022-09-15T23:16:22.181Z,0.52
2022-09-15T23:18:50.677Z,0.52
2022-09-15T23:21:18.229Z,0.47
2022-09-15T23:23:47.733Z,0.50
2022-09-15T23:26:17.339Z,0.45
2022-09-15T23:28:44.770Z,0.57
2022-09-15T23:31:13.525Z,0.45
2022-09-15T23:33:40.997Z,0.50
2022-09-15T23:36:12.307Z,0.60
2022-09-15T23:38:41.604Z,0.50
2022-09-15T23:41:10.612Z,0.40
2022-09-15T23:43:37.956Z,0.80
2022-09-15T23:46:05.567Z,0.85
2022-09-15T23:48:32.961Z,0.50
2022-09-15T23:51:00.894Z,0.50
2022-09-15T23:53:29.287Z,0.50
2022-09-15T23:55:57.002Z,0.80
2022-09-15T23:58:24.731Z,0.40
